sensor_id;sensor_type;location;lat;lon;timestamp;P1;durP1;ratioP1;P2;durP2;ratioP2
66893;SDS011;53801;55.786;49.142;2022-07-23T00:00:47;11.25;;;5.47;;
66893;SDS011;53801;55.786;49.142;2022-07-23T00:03:12;10.07;;;5.80;;
66893;SDS011;53801;55.786;49.142;2022-07-23T00:05:38;13.70;;;6.03;;
66893;SDS011;53801;55.786;49.142;2022-07-23T00:08:04;9.18;;;5.72;;
66893;SDS011;53801;55.786;49.142;2022-07-23T00:10:30;10.63;;;6.05;;
66893;SDS011;53801;55.786;49.142;2022-07-23T00:12:56;11.00;;;6.00;;
66893;SDS011;53801;55.786;49.142;2022-07-23T00:15:21;11.87;;;5.70;;
66893;SDS011;53801;55.786;49.142;2022-07-23T00:17:47;9.05;;;5.72;;
66893;SDS011;53801;55.786;49.142;2022-07-23T00:20:12;10.50;;;5.97;;
66893;SDS011;53801;55.786;49.142;2022-07-23T00:22:45;8.63;;;5.60;;
66893;SDS011;53801;55.786;49.142;2022-07-23T00:25:10;11.60;;;6.20;;
66893;SDS011;53801;55.786;49.142;2022-07-23T00:27:36;8.93;;;5.57;;
66893;SDS011;53801;55.786;49.142;2022-07-23T00:30:01;9.50;;;5.78;;
66893;SDS011;53801;55.786;49.142;2022-07-23T00:32:29;12.30;;;5.10;;
66893;SDS011;53801;55.786;49.142;2022-07-23T00:34:54;10.15;;;5.38;;
66893;SDS011;53801;55.786;49.142;2022-07-23T00:37:20;8.77;;;5.73;;
66893;SDS011;53801;55.786;49.142;2022-07-23T00:39:45;8.27;;;5.10;;
66893;SDS011;53801;55.786;49.142;2022-07-23T00:42:11;7.60;;;5.07;;
66893;SDS011;53801;55.786;49.142;2022-07-23T00:44:36;8.63;;;5.20;;
66893;SDS011;53801;55.786;49.142;2022-07-23T00:47:02;8.85;;;5.60;;
66893;SDS011;53801;55.786;49.142;2022-07-23T00:49:28;7.90;;;5.17;;
66893;SDS011;53801;55.786;49.142;2022-07-23T00:51:54;9.57;;;5.05;;
66893;SDS011;53801;55.786;49.142;2022-07-23T00:54:19;9.47;;;5.27;;
66893;SDS011;53801;55.786;49.142;2022-07-23T00:56:47;10.70;;;5.05;;
66893;SDS011;53801;55.786;49.142;2022-07-23T00:59:13;8.82;;;5.43;;
66893;SDS011;53801;55.786;49.142;2022-07-23T01:01:38;11.35;;;5.00;;
66893;SDS011;53801;55.786;49.142;2022-07-23T01:04:04;8.83;;;4.90;;
66893;SDS011;53801;55.786;49.142;2022-07-23T01:06:30;8.53;;;4.73;;
66893;SDS011;53801;55.786;49.142;2022-07-23T01:08:58;8.73;;;5.10;;
66893;SDS011;53801;55.786;49.142;2022-07-23T01:11:23;7.63;;;5.10;;
66893;SDS011;53801;55.786;49.142;2022-07-23T01:13:49;7.88;;;4.95;;
66893;SDS011;53801;55.786;49.142;2022-07-23T01:16:15;10.63;;;5.60;;
66893;SDS011;53801;55.786;49.142;2022-07-23T01:18:40;10.13;;;5.70;;
66893;SDS011;53801;55.786;49.142;2022-07-23T01:21:06;11.20;;;5.65;;
66893;SDS011;53801;55.786;49.142;2022-07-23T01:23:32;9.20;;;5.10;;
66893;SDS011;53801;55.786;49.142;2022-07-23T01:25:57;10.43;;;5.90;;
66893;SDS011;53801;55.786;49.142;2022-07-23T01:28:23;9.50;;;5.50;;
66893;SDS011;53801;55.786;49.142;2022-07-23T01:30:48;11.67;;;5.63;;
66893;SDS011;53801;55.786;49.142;2022-07-23T01:33:14;12.97;;;5.87;;
66893;SDS011;53801;55.786;49.142;2022-07-23T01:35:39;9.32;;;5.50;;
66893;SDS011;53801;55.786;49.142;2022-07-23T01:38:05;10.15;;;5.55;;
66893;SDS011;53801;55.786;49.142;2022-07-23T01:40:30;14.40;;;5.50;;
66893;SDS011;53801;55.786;49.142;2022-07-23T01:42:55;8.87;;;6.00;;
66893;SDS011;53801;55.786;49.142;2022-07-23T01:45:21;8.30;;;6.20;;
66893;SDS011;53801;55.786;49.142;2022-07-23T01:47:47;9.43;;;5.78;;
66893;SDS011;53801;55.786;49.142;2022-07-23T01:50:13;10.18;;;6.20;;
66893;SDS011;53801;55.786;49.142;2022-07-23T01:52:38;11.60;;;6.17;;
66893;SDS011;53801;55.786;49.142;2022-07-23T01:55:04;11.60;;;6.17;;
66893;SDS011;53801;55.786;49.142;2022-07-23T01:57:31;12.48;;;6.88;;
66893;SDS011;53801;55.786;49.142;2022-07-23T01:59:56;11.07;;;6.37;;
66893;SDS011;53801;55.786;49.142;2022-07-23T02:02:21;10.88;;;6.57;;
66893;SDS011;53801;55.786;49.142;2022-07-23T02:04:47;11.73;;;6.67;;
66893;SDS011;53801;55.786;49.142;2022-07-23T02:07:12;12.13;;;6.60;;
66893;SDS011;53801;55.786;49.142;2022-07-23T02:09:38;12.97;;;6.97;;
66893;SDS011;53801;55.786;49.142;2022-07-23T02:12:03;9.20;;;6.00;;
66893;SDS011;53801;55.786;49.142;2022-07-23T02:14:29;12.93;;;6.40;;
66893;SDS011;53801;55.786;49.142;2022-07-23T02:16:54;16.23;;;7.20;;
66893;SDS011;53801;55.786;49.142;2022-07-23T02:19:22;9.90;;;6.45;;
66893;SDS011;53801;55.786;49.142;2022-07-23T02:21:48;11.52;;;6.70;;
66893;SDS011;53801;55.786;49.142;2022-07-23T02:24:13;17.53;;;7.03;;
66893;SDS011;53801;55.786;49.142;2022-07-23T02:26:38;9.97;;;6.30;;
66893;SDS011;53801;55.786;49.142;2022-07-23T02:29:04;12.65;;;6.43;;
66893;SDS011;53801;55.786;49.142;2022-07-23T02:31:30;10.80;;;6.60;;
66893;SDS011;53801;55.786;49.142;2022-07-23T02:33:55;10.67;;;6.30;;
66893;SDS011;53801;55.786;49.142;2022-07-23T02:36:21;10.40;;;6.32;;
66893;SDS011;53801;55.786;49.142;2022-07-23T02:38:47;8.80;;;6.17;;
66893;SDS011;53801;55.786;49.142;2022-07-23T02:41:12;12.38;;;6.35;;
66893;SDS011;53801;55.786;49.142;2022-07-23T02:43:38;12.13;;;5.93;;
66893;SDS011;53801;55.786;49.142;2022-07-23T02:46:03;10.07;;;6.22;;
66893;SDS011;53801;55.786;49.142;2022-07-23T02:48:29;10.93;;;5.57;;
66893;SDS011;53801;55.786;49.142;2022-07-23T02:50:55;15.38;;;6.40;;
66893;SDS011;53801;55.786;49.142;2022-07-23T02:53:22;15.33;;;6.30;;
66893;SDS011;53801;55.786;49.142;2022-07-23T02:55:47;10.27;;;6.13;;
66893;SDS011;53801;55.786;49.142;2022-07-23T02:58:12;12.87;;;7.07;;
66893;SDS011;53801;55.786;49.142;2022-07-23T03:00:38;11.27;;;6.90;;
66893;SDS011;53801;55.786;49.142;2022-07-23T03:03:03;13.38;;;7.55;;
66893;SDS011;53801;55.786;49.142;2022-07-23T03:05:29;9.93;;;7.00;;
66893;SDS011;53801;55.786;49.142;2022-07-23T03:07:54;9.30;;;6.90;;
66893;SDS011;53801;55.786;49.142;2022-07-23T03:10:20;12.67;;;7.13;;
66893;SDS011;53801;55.786;49.142;2022-07-23T03:12:45;12.43;;;7.07;;
66893;SDS011;53801;55.786;49.142;2022-07-23T03:15:10;11.00;;;7.03;;
66893;SDS011;53801;55.786;49.142;2022-07-23T03:17:36;11.73;;;7.23;;
66893;SDS011;53801;55.786;49.142;2022-07-23T03:20:01;11.40;;;7.27;;
66893;SDS011;53801;55.786;49.142;2022-07-23T03:22:28;10.68;;;6.53;;
66893;SDS011;53801;55.786;49.142;2022-07-23T03:24:54;11.03;;;6.80;;
66893;SDS011;53801;55.786;49.142;2022-07-23T03:27:23;8.98;;;6.20;;
66893;SDS011;53801;55.786;49.142;2022-07-23T03:29:50;9.00;;;5.50;;
66893;SDS011;53801;55.786;49.142;2022-07-23T03:32:15;8.23;;;6.03;;
66893;SDS011;53801;55.786;49.142;2022-07-23T03:34:41;12.10;;;6.10;;
66893;SDS011;53801;55.786;49.142;2022-07-23T03:37:06;24.88;;;7.75;;
66893;SDS011;53801;55.786;49.142;2022-07-23T03:39:31;8.07;;;5.47;;
66893;SDS011;53801;55.786;49.142;2022-07-23T03:41:57;8.40;;;6.47;;
66893;SDS011;53801;55.786;49.142;2022-07-23T03:44:22;8.03;;;5.83;;
66893;SDS011;53801;55.786;49.142;2022-07-23T03:46:48;9.60;;;5.47;;
66893;SDS011;53801;55.786;49.142;2022-07-23T03:49:13;7.27;;;5.87;;
66893;SDS011;53801;55.786;49.142;2022-07-23T03:51:39;16.67;;;6.53;;
66893;SDS011;53801;55.786;49.142;2022-07-23T03:54:04;11.47;;;6.40;;
66893;SDS011;53801;55.786;49.142;2022-07-23T03:56:30;10.17;;;6.13;;
66893;SDS011;53801;55.786;49.142;2022-07-23T03:58:55;9.68;;;6.30;;
66893;SDS011;53801;55.786;49.142;2022-07-23T04:01:21;10.50;;;6.67;;
66893;SDS011;53801;55.786;49.142;2022-07-23T04:03:46;8.50;;;6.00;;
66893;SDS011;53801;55.786;49.142;2022-07-23T04:06:12;9.43;;;6.72;;
66893;SDS011;53801;55.786;49.142;2022-07-23T04:08:37;9.90;;;7.37;;
66893;SDS011;53801;55.786;49.142;2022-07-23T04:11:03;9.00;;;7.10;;
66893;SDS011;53801;55.786;49.142;2022-07-23T04:13:28;12.32;;;7.75;;
66893;SDS011;53801;55.786;49.142;2022-07-23T04:15:54;10.63;;;7.60;;
66893;SDS011;53801;55.786;49.142;2022-07-23T04:18:19;14.83;;;8.20;;
66893;SDS011;53801;55.786;49.142;2022-07-23T04:20:47;15.00;;;8.00;;
66893;SDS011;53801;55.786;49.142;2022-07-23T04:23:12;13.53;;;8.40;;
66893;SDS011;53801;55.786;49.142;2022-07-23T04:25:38;12.90;;;9.13;;
66893;SDS011;53801;55.786;49.142;2022-07-23T04:28:03;14.10;;;9.13;;
66893;SDS011;53801;55.786;49.142;2022-07-23T04:30:29;12.82;;;9.20;;
66893;SDS011;53801;55.786;49.142;2022-07-23T04:32:54;13.38;;;9.13;;
66893;SDS011;53801;55.786;49.142;2022-07-23T04:35:20;13.95;;;9.85;;
66893;SDS011;53801;55.786;49.142;2022-07-23T04:37:45;13.30;;;9.77;;
66893;SDS011;53801;55.786;49.142;2022-07-23T04:40:11;16.60;;;10.70;;
66893;SDS011;53801;55.786;49.142;2022-07-23T04:42:37;18.05;;;11.88;;
66893;SDS011;53801;55.786;49.142;2022-07-23T04:45:02;10.90;;;9.80;;
66893;SDS011;53801;55.786;49.142;2022-07-23T04:47:29;14.73;;;10.55;;
66893;SDS011;53801;55.786;49.142;2022-07-23T04:49:55;15.93;;;10.45;;
66893;SDS011;53801;55.786;49.142;2022-07-23T04:52:21;13.97;;;10.37;;
66893;SDS011;53801;55.786;49.142;2022-07-23T04:54:46;15.30;;;12.17;;
66893;SDS011;53801;55.786;49.142;2022-07-23T04:57:12;15.90;;;11.80;;
66893;SDS011;53801;55.786;49.142;2022-07-23T04:59:37;13.05;;;11.57;;
66893;SDS011;53801;55.786;49.142;2022-07-23T05:02:02;15.20;;;12.10;;
66893;SDS011;53801;55.786;49.142;2022-07-23T05:04:28;14.73;;;11.07;;
66893;SDS011;53801;55.786;49.142;2022-07-23T05:06:53;13.60;;;11.37;;
66893;SDS011;53801;55.786;49.142;2022-07-23T05:09:19;14.98;;;12.38;;
66893;SDS011;53801;55.786;49.142;2022-07-23T05:11:44;11.97;;;10.67;;
66893;SDS011;53801;55.786;49.142;2022-07-23T05:14:09;12.57;;;11.40;;
66893;SDS011;53801;55.786;49.142;2022-07-23T05:16:37;15.70;;;11.90;;
66893;SDS011;53801;55.786;49.142;2022-07-23T05:19:03;14.53;;;12.87;;
66893;SDS011;53801;55.786;49.142;2022-07-23T05:21:30;14.63;;;13.13;;
66893;SDS011;53801;55.786;49.142;2022-07-23T05:23:56;15.90;;;12.47;;
66893;SDS011;53801;55.786;49.142;2022-07-23T05:26:21;16.15;;;13.70;;
66893;SDS011;53801;55.786;49.142;2022-07-23T05:28:46;15.30;;;13.70;;
66893;SDS011;53801;55.786;49.142;2022-07-23T05:31:12;16.97;;;14.87;;
66893;SDS011;53801;55.786;49.142;2022-07-23T05:33:37;16.50;;;13.17;;
66893;SDS011;53801;55.786;49.142;2022-07-23T05:36:03;14.15;;;11.75;;
66893;SDS011;53801;55.786;49.142;2022-07-23T05:38:29;16.13;;;13.00;;
66893;SDS011;53801;55.786;49.142;2022-07-23T05:40:55;13.60;;;11.65;;
66893;SDS011;53801;55.786;49.142;2022-07-23T05:43:20;15.77;;;13.93;;
66893;SDS011;53801;55.786;49.142;2022-07-23T05:45:46;14.77;;;12.47;;
66893;SDS011;53801;55.786;49.142;2022-07-23T05:48:11;18.02;;;12.95;;
66893;SDS011;53801;55.786;49.142;2022-07-23T05:50:37;15.23;;;13.70;;
66893;SDS011;53801;55.786;49.142;2022-07-23T05:53:02;12.87;;;11.63;;
66893;SDS011;53801;55.786;49.142;2022-07-23T05:55:28;13.27;;;11.27;;
66893;SDS011;53801;55.786;49.142;2022-07-23T05:57:55;15.50;;;12.32;;
66893;SDS011;53801;55.786;49.142;2022-07-23T06:00:20;18.02;;;12.27;;
66893;SDS011;53801;55.786;49.142;2022-07-23T06:02:48;16.27;;;12.82;;
66893;SDS011;53801;55.786;49.142;2022-07-23T06:05:13;13.63;;;12.43;;
66893;SDS011;53801;55.786;49.142;2022-07-23T06:07:39;16.20;;;14.43;;
66893;SDS011;53801;55.786;49.142;2022-07-23T06:10:07;18.42;;;16.73;;
66893;SDS011;53801;55.786;49.142;2022-07-23T06:12:33;16.65;;;15.00;;
66893;SDS011;53801;55.786;49.142;2022-07-23T06:14:58;18.10;;;14.47;;
66893;SDS011;53801;55.786;49.142;2022-07-23T06:17:23;14.87;;;13.37;;
66893;SDS011;53801;55.786;49.142;2022-07-23T06:19:49;18.17;;;16.35;;
66893;SDS011;53801;55.786;49.142;2022-07-23T06:22:19;17.27;;;14.98;;
66893;SDS011;53801;55.786;49.142;2022-07-23T06:24:45;15.43;;;12.13;;
66893;SDS011;53801;55.786;49.142;2022-07-23T06:27:10;15.27;;;13.97;;
66893;SDS011;53801;55.786;49.142;2022-07-23T06:29:36;13.38;;;11.98;;
66893;SDS011;53801;55.786;49.142;2022-07-23T06:32:01;14.40;;;12.88;;
66893;SDS011;53801;55.786;49.142;2022-07-23T06:34:27;14.63;;;13.23;;
66893;SDS011;53801;55.786;49.142;2022-07-23T06:36:55;15.02;;;13.68;;
66893;SDS011;53801;55.786;49.142;2022-07-23T06:39:20;13.37;;;11.90;;
66893;SDS011;53801;55.786;49.142;2022-07-23T06:41:46;12.02;;;10.93;;
66893;SDS011;53801;55.786;49.142;2022-07-23T06:44:11;15.38;;;14.18;;
66893;SDS011;53801;55.786;49.142;2022-07-23T06:46:36;12.73;;;11.63;;
66893;SDS011;53801;55.786;49.142;2022-07-23T06:49:02;16.63;;;14.90;;
66893;SDS011;53801;55.786;49.142;2022-07-23T06:51:29;14.10;;;12.60;;
66893;SDS011;53801;55.786;49.142;2022-07-23T06:53:54;12.90;;;11.67;;
66893;SDS011;53801;55.786;49.142;2022-07-23T06:56:20;13.15;;;11.95;;
66893;SDS011;53801;55.786;49.142;2022-07-23T06:58:46;13.27;;;12.03;;
66893;SDS011;53801;55.786;49.142;2022-07-23T07:01:11;17.43;;;14.60;;
66893;SDS011;53801;55.786;49.142;2022-07-23T07:03:37;12.45;;;11.45;;
66893;SDS011;53801;55.786;49.142;2022-07-23T07:06:02;11.43;;;10.48;;
66893;SDS011;53801;55.786;49.142;2022-07-23T07:08:28;12.63;;;11.83;;
66893;SDS011;53801;55.786;49.142;2022-07-23T07:10:53;12.00;;;10.90;;
66893;SDS011;53801;55.786;49.142;2022-07-23T07:13:19;13.55;;;12.40;;
66893;SDS011;53801;55.786;49.142;2022-07-23T07:15:44;12.53;;;11.50;;
66893;SDS011;53801;55.786;49.142;2022-07-23T07:18:10;12.70;;;11.73;;
66893;SDS011;53801;55.786;49.142;2022-07-23T07:20:35;13.30;;;12.23;;
66893;SDS011;53801;55.786;49.142;2022-07-23T07:23:01;14.02;;;12.93;;
66893;SDS011;53801;55.786;49.142;2022-07-23T07:25:26;13.73;;;12.63;;
66893;SDS011;53801;55.786;49.142;2022-07-23T07:27:52;13.98;;;12.82;;
66893;SDS011;53801;55.786;49.142;2022-07-23T07:30:17;10.97;;;10.17;;
66893;SDS011;53801;55.786;49.142;2022-07-23T07:32:43;12.03;;;11.13;;
66893;SDS011;53801;55.786;49.142;2022-07-23T07:35:08;12.83;;;11.73;;
66893;SDS011;53801;55.786;49.142;2022-07-23T07:37:36;11.77;;;10.82;;
66893;SDS011;53801;55.786;49.142;2022-07-23T07:40:02;12.05;;;11.05;;
66893;SDS011;53801;55.786;49.142;2022-07-23T07:42:28;13.60;;;12.40;;
66893;SDS011;53801;55.786;49.142;2022-07-23T07:44:54;12.63;;;11.57;;
66893;SDS011;53801;55.786;49.142;2022-07-23T07:47:19;12.80;;;11.90;;
66893;SDS011;53801;55.786;49.142;2022-07-23T07:49:45;13.83;;;12.77;;
66893;SDS011;53801;55.786;49.142;2022-07-23T07:52:10;14.30;;;12.83;;
66893;SDS011;53801;55.786;49.142;2022-07-23T07:54:36;9.95;;;9.15;;
66893;SDS011;53801;55.786;49.142;2022-07-23T07:57:02;12.27;;;11.27;;
66893;SDS011;53801;55.786;49.142;2022-07-23T07:59:27;13.40;;;12.40;;
66893;SDS011;53801;55.786;49.142;2022-07-23T08:01:52;14.00;;;12.80;;
66893;SDS011;53801;55.786;49.142;2022-07-23T08:04:18;13.00;;;11.73;;
66893;SDS011;53801;55.786;49.142;2022-07-23T08:06:44;14.13;;;12.97;;
66893;SDS011;53801;55.786;49.142;2022-07-23T08:09:09;12.60;;;11.50;;
66893;SDS011;53801;55.786;49.142;2022-07-23T08:11:35;13.30;;;12.20;;
66893;SDS011;53801;55.786;49.142;2022-07-23T08:14:03;13.15;;;12.00;;
66893;SDS011;53801;55.786;49.142;2022-07-23T08:16:28;14.40;;;13.20;;
66893;SDS011;53801;55.786;49.142;2022-07-23T08:18:54;16.73;;;15.23;;
66893;SDS011;53801;55.786;49.142;2022-07-23T08:21:19;14.15;;;12.95;;
66893;SDS011;53801;55.786;49.142;2022-07-23T08:23:48;14.00;;;13.00;;
66893;SDS011;53801;55.786;49.142;2022-07-23T08:26:13;13.80;;;12.60;;
66893;SDS011;53801;55.786;49.142;2022-07-23T08:28:39;12.40;;;11.40;;
66893;SDS011;53801;55.786;49.142;2022-07-23T08:31:04;15.30;;;13.80;;
66893;SDS011;53801;55.786;49.142;2022-07-23T08:33:38;15.05;;;13.75;;
66893;SDS011;53801;55.786;49.142;2022-07-23T08:36:07;15.75;;;14.27;;
66893;SDS011;53801;55.786;49.142;2022-07-23T08:38:33;15.03;;;13.60;;
66893;SDS011;53801;55.786;49.142;2022-07-23T08:40:58;15.82;;;14.63;;
66893;SDS011;53801;55.786;49.142;2022-07-23T08:43:25;14.47;;;13.37;;
66893;SDS011;53801;55.786;49.142;2022-07-23T08:45:53;16.33;;;15.23;;
66893;SDS011;53801;55.786;49.142;2022-07-23T08:48:22;16.05;;;14.85;;
66893;SDS011;53801;55.786;49.142;2022-07-23T08:50:49;16.13;;;14.45;;
66893;SDS011;53801;55.786;49.142;2022-07-23T08:53:16;12.43;;;11.33;;
66893;SDS011;53801;55.786;49.142;2022-07-23T08:55:44;15.73;;;14.38;;
66893;SDS011;53801;55.786;49.142;2022-07-23T08:58:11;17.67;;;15.95;;
66893;SDS011;53801;55.786;49.142;2022-07-23T09:00:36;16.40;;;15.10;;
66893;SDS011;53801;55.786;49.142;2022-07-23T09:03:13;15.00;;;13.70;;
66893;SDS011;53801;55.786;49.142;2022-07-23T09:05:40;16.85;;;15.32;;
66893;SDS011;53801;55.786;49.142;2022-07-23T09:10:42;16.17;;;14.77;;
66893;SDS011;53801;55.786;49.142;2022-07-23T09:13:21;16.35;;;15.00;;
66893;SDS011;53801;55.786;49.142;2022-07-23T09:15:51;16.30;;;15.00;;
66893;SDS011;53801;55.786;49.142;2022-07-23T09:18:16;14.10;;;12.93;;
66893;SDS011;53801;55.786;49.142;2022-07-23T09:20:43;16.23;;;14.87;;
66893;SDS011;53801;55.786;49.142;2022-07-23T09:23:08;15.82;;;14.32;;
66893;SDS011;53801;55.786;49.142;2022-07-23T09:25:34;14.63;;;13.20;;
66893;SDS011;53801;55.786;49.142;2022-07-23T09:27:59;14.23;;;13.02;;
66893;SDS011;53801;55.786;49.142;2022-07-23T09:30:31;11.38;;;10.18;;
66893;SDS011;53801;55.786;49.142;2022-07-23T09:35:48;10.18;;;9.27;;
66893;SDS011;53801;55.786;49.142;2022-07-23T09:38:14;9.60;;;8.70;;
66893;SDS011;53801;55.786;49.142;2022-07-23T09:40:40;10.27;;;9.38;;
66893;SDS011;53801;55.786;49.142;2022-07-23T09:43:08;15.55;;;9.30;;
66893;SDS011;53801;55.786;49.142;2022-07-23T09:45:33;11.73;;;10.73;;
66893;SDS011;53801;55.786;49.142;2022-07-23T09:48:15;13.45;;;12.05;;
66893;SDS011;53801;55.786;49.142;2022-07-23T09:50:41;12.90;;;11.80;;
66893;SDS011;53801;55.786;49.142;2022-07-23T09:53:07;12.35;;;11.15;;
66893;SDS011;53801;55.786;49.142;2022-07-23T09:55:33;13.60;;;12.20;;
66893;SDS011;53801;55.786;49.142;2022-07-23T09:58:02;12.70;;;11.52;;
66893;SDS011;53801;55.786;49.142;2022-07-23T10:00:27;11.57;;;10.65;;
66893;SDS011;53801;55.786;49.142;2022-07-23T10:02:53;13.30;;;12.17;;
66893;SDS011;53801;55.786;49.142;2022-07-23T10:05:19;12.45;;;11.35;;
66893;SDS011;53801;55.786;49.142;2022-07-23T10:07:52;12.23;;;11.02;;
66893;SDS011;53801;55.786;49.142;2022-07-23T10:10:21;11.83;;;10.90;;
66893;SDS011;53801;55.786;49.142;2022-07-23T10:12:47;13.65;;;12.55;;
66893;SDS011;53801;55.786;49.142;2022-07-23T10:15:15;14.10;;;12.38;;
66893;SDS011;53801;55.786;49.142;2022-07-23T10:17:41;12.83;;;11.83;;
66893;SDS011;53801;55.786;49.142;2022-07-23T10:20:06;14.15;;;12.95;;
66893;SDS011;53801;55.786;49.142;2022-07-23T10:22:35;13.20;;;12.10;;
66893;SDS011;53801;55.786;49.142;2022-07-23T10:25:10;12.20;;;11.20;;
66893;SDS011;53801;55.786;49.142;2022-07-23T10:30:12;11.20;;;10.20;;
66893;SDS011;53801;55.786;49.142;2022-07-23T10:35:12;11.05;;;10.02;;
66893;SDS011;53801;55.786;49.142;2022-07-23T10:37:42;10.52;;;9.50;;
66893;SDS011;53801;55.786;49.142;2022-07-23T10:40:20;9.38;;;8.23;;
66893;SDS011;53801;55.786;49.142;2022-07-23T10:42:47;9.73;;;8.77;;
66893;SDS011;53801;55.786;49.142;2022-07-23T10:45:32;10.90;;;9.07;;
66893;SDS011;53801;55.786;49.142;2022-07-23T10:48:17;9.23;;;8.32;;
66893;SDS011;53801;55.786;49.142;2022-07-23T10:50:43;8.55;;;7.68;;
66893;SDS011;53801;55.786;49.142;2022-07-23T10:53:13;9.38;;;8.40;;
66893;SDS011;53801;55.786;49.142;2022-07-23T10:55:52;10.70;;;7.53;;
66893;SDS011;53801;55.786;49.142;2022-07-23T10:58:19;7.87;;;7.00;;
66893;SDS011;53801;55.786;49.142;2022-07-23T11:00:44;11.68;;;8.10;;
66893;SDS011;53801;55.786;49.142;2022-07-23T11:06:11;9.80;;;7.40;;
66893;SDS011;53801;55.786;49.142;2022-07-23T11:08:36;12.10;;;7.95;;
66893;SDS011;53801;55.786;49.142;2022-07-23T11:21:42;12.65;;;7.43;;
66893;SDS011;53801;55.786;49.142;2022-07-23T11:31:58;10.95;;;7.57;;
66893;SDS011;53801;55.786;49.142;2022-07-23T11:36:59;8.98;;;7.57;;
66893;SDS011;53801;55.786;49.142;2022-07-23T11:39:26;8.93;;;7.30;;
66893;SDS011;53801;55.786;49.142;2022-07-23T11:41:52;8.48;;;7.18;;
66893;SDS011;53801;55.786;49.142;2022-07-23T11:44:24;8.68;;;7.55;;
66893;SDS011;53801;55.786;49.142;2022-07-23T11:49:22;9.45;;;6.78;;
66893;SDS011;53801;55.786;49.142;2022-07-23T11:51:53;10.23;;;7.60;;
66893;SDS011;53801;55.786;49.142;2022-07-23T11:54:26;9.60;;;6.90;;
66893;SDS011;53801;55.786;49.142;2022-07-23T11:56:56;8.10;;;7.30;;
66893;SDS011;53801;55.786;49.142;2022-07-23T11:59:21;8.77;;;7.20;;
66893;SDS011;53801;55.786;49.142;2022-07-23T12:02:03;12.45;;;7.45;;
66893;SDS011;53801;55.786;49.142;2022-07-23T12:04:39;8.43;;;6.85;;
66893;SDS011;53801;55.786;49.142;2022-07-23T12:07:22;8.27;;;6.57;;
66893;SDS011;53801;55.786;49.142;2022-07-23T12:09:47;7.88;;;6.70;;
66893;SDS011;53801;55.786;49.142;2022-07-23T12:12:13;10.57;;;7.03;;
66893;SDS011;53801;55.786;49.142;2022-07-23T12:14:47;8.00;;;6.90;;
66893;SDS011;53801;55.786;49.142;2022-07-23T12:17:12;11.73;;;7.05;;
66893;SDS011;53801;55.786;49.142;2022-07-23T12:19:37;8.67;;;6.87;;
66893;SDS011;53801;55.786;49.142;2022-07-23T12:22:03;8.38;;;7.10;;
66893;SDS011;53801;55.786;49.142;2022-07-23T12:24:29;10.10;;;6.78;;
66893;SDS011;53801;55.786;49.142;2022-07-23T12:27:11;8.47;;;6.87;;
66893;SDS011;53801;55.786;49.142;2022-07-23T12:29:37;8.98;;;6.88;;
66893;SDS011;53801;55.786;49.142;2022-07-23T12:32:15;8.50;;;7.00;;
66893;SDS011;53801;55.786;49.142;2022-07-23T12:34:41;7.47;;;6.60;;
66893;SDS011;53801;55.786;49.142;2022-07-23T12:37:07;7.43;;;6.45;;
66893;SDS011;53801;55.786;49.142;2022-07-23T12:39:32;10.13;;;7.30;;
66893;SDS011;53801;55.786;49.142;2022-07-23T12:41:58;9.88;;;7.68;;
66893;SDS011;53801;55.786;49.142;2022-07-23T12:44:23;8.82;;;6.85;;
66893;SDS011;53801;55.786;49.142;2022-07-23T12:46:49;8.97;;;7.20;;
66893;SDS011;53801;55.786;49.142;2022-07-23T12:49:24;9.82;;;6.93;;
66893;SDS011;53801;55.786;49.142;2022-07-23T12:51:50;13.97;;;9.60;;
66893;SDS011;53801;55.786;49.142;2022-07-23T12:54:15;10.73;;;6.85;;
66893;SDS011;53801;55.786;49.142;2022-07-23T12:56:44;10.83;;;6.67;;
66893;SDS011;53801;55.786;49.142;2022-07-23T12:59:11;12.25;;;7.85;;
66893;SDS011;53801;55.786;49.142;2022-07-23T13:01:37;13.03;;;7.67;;
66893;SDS011;53801;55.786;49.142;2022-07-23T13:04:10;10.38;;;7.95;;
66893;SDS011;53801;55.786;49.142;2022-07-23T13:06:37;8.38;;;6.90;;
66893;SDS011;53801;55.786;49.142;2022-07-23T13:09:03;10.65;;;7.30;;
66893;SDS011;53801;55.786;49.142;2022-07-23T13:11:29;11.73;;;7.50;;
66893;SDS011;53801;55.786;49.142;2022-07-23T13:13:54;9.73;;;7.20;;
66893;SDS011;53801;55.786;49.142;2022-07-23T13:16:20;10.37;;;7.03;;
66893;SDS011;53801;55.786;49.142;2022-07-23T13:18:45;9.80;;;7.00;;
66893;SDS011;53801;55.786;49.142;2022-07-23T13:21:10;9.85;;;7.00;;
66893;SDS011;53801;55.786;49.142;2022-07-23T13:23:36;8.87;;;6.73;;
66893;SDS011;53801;55.786;49.142;2022-07-23T13:26:02;8.02;;;6.63;;
66893;SDS011;53801;55.786;49.142;2022-07-23T13:28:28;12.52;;;7.03;;
66893;SDS011;53801;55.786;49.142;2022-07-23T13:30:53;10.07;;;6.47;;
66893;SDS011;53801;55.786;49.142;2022-07-23T13:33:20;10.00;;;7.13;;
66893;SDS011;53801;55.786;49.142;2022-07-23T13:35:45;8.02;;;6.55;;
66893;SDS011;53801;55.786;49.142;2022-07-23T13:38:11;10.43;;;6.80;;
66893;SDS011;53801;55.786;49.142;2022-07-23T13:40:38;8.68;;;6.45;;
66893;SDS011;53801;55.786;49.142;2022-07-23T13:43:04;8.77;;;6.47;;
66893;SDS011;53801;55.786;49.142;2022-07-23T13:45:30;11.20;;;7.03;;
66893;SDS011;53801;55.786;49.142;2022-07-23T13:47:56;9.68;;;6.82;;
66893;SDS011;53801;55.786;49.142;2022-07-23T13:50:21;10.37;;;7.13;;
66893;SDS011;53801;55.786;49.142;2022-07-23T13:52:47;8.20;;;6.50;;
66893;SDS011;53801;55.786;49.142;2022-07-23T13:55:12;10.65;;;6.63;;
66893;SDS011;53801;55.786;49.142;2022-07-23T13:57:38;7.72;;;6.15;;
66893;SDS011;53801;55.786;49.142;2022-07-23T14:00:04;8.17;;;6.43;;
66893;SDS011;53801;55.786;49.142;2022-07-23T14:02:30;8.75;;;6.55;;
66893;SDS011;53801;55.786;49.142;2022-07-23T14:04:56;10.33;;;7.23;;
66893;SDS011;53801;55.786;49.142;2022-07-23T14:07:22;8.95;;;6.47;;
66893;SDS011;53801;55.786;49.142;2022-07-23T14:09:47;8.93;;;6.60;;
66893;SDS011;53801;55.786;49.142;2022-07-23T14:12:13;9.87;;;7.10;;
66893;SDS011;53801;55.786;49.142;2022-07-23T14:14:38;9.93;;;6.70;;
66893;SDS011;53801;55.786;49.142;2022-07-23T14:17:05;11.40;;;6.77;;
66893;SDS011;53801;55.786;49.142;2022-07-23T14:19:30;10.50;;;6.55;;
66893;SDS011;53801;55.786;49.142;2022-07-23T14:21:56;19.20;;;8.10;;
66893;SDS011;53801;55.786;49.142;2022-07-23T14:24:21;14.70;;;6.60;;
66893;SDS011;53801;55.786;49.142;2022-07-23T14:26:46;9.23;;;6.30;;
66893;SDS011;53801;55.786;49.142;2022-07-23T14:29:12;8.20;;;6.13;;
66893;SDS011;53801;55.786;49.142;2022-07-23T14:31:37;9.15;;;6.45;;
66893;SDS011;53801;55.786;49.142;2022-07-23T14:34:03;9.87;;;6.73;;
66893;SDS011;53801;55.786;49.142;2022-07-23T14:36:28;13.43;;;6.63;;
66893;SDS011;53801;55.786;49.142;2022-07-23T14:38:54;11.70;;;6.80;;
66893;SDS011;53801;55.786;49.142;2022-07-23T14:41:19;9.70;;;6.77;;
66893;SDS011;53801;55.786;49.142;2022-07-23T14:43:45;9.40;;;6.77;;
66893;SDS011;53801;55.786;49.142;2022-07-23T14:46:11;10.13;;;7.23;;
66893;SDS011;53801;55.786;49.142;2022-07-23T14:48:36;10.23;;;6.55;;
66893;SDS011;53801;55.786;49.142;2022-07-23T14:51:02;9.97;;;6.67;;
66893;SDS011;53801;55.786;49.142;2022-07-23T14:53:27;8.73;;;6.07;;